sensor_id;sensor_type;location;lat;lon;timestamp;temperature;humidity
23669;DHT22;12011;47.422;15.018;2023-08-21T00:01:23;16.70;99.90
23669;DHT22;12011;47.422;15.018;2023-08-21T00:03:55;16.70;99.90
23669;DHT22;12011;47.422;15.018;2023-08-21T00:06:27;16.60;99.90
23669;DHT22;12011;47.422;15.018;2023-08-21T00:09:00;16.50;99.90
23669;DHT22;12011;47.422;15.018;2023-08-21T00:11:30;16.50;99.90
23669;DHT22;12011;47.422;15.018;2023-08-21T00:14:02;16.40;99.90
23669;DHT22;12011;47.422;15.018;2023-08-21T00:16:32;16.40;99.90
23669;DHT22;12011;47.422;15.018;2023-08-21T00:19:03;16.30;99.90
23669;DHT22;12011;47.422;15.018;2023-08-21T00:21:32;16.30;99.90
23669;DHT22;12011;47.422;15.018;2023-08-21T00:24:05;16.30;99.90
23669;DHT22;12011;47.422;15.018;2023-08-21T00:26:34;16.30;99.90
23669;DHT22;12011;47.422;15.018;2023-08-21T00:29:04;16.30;99.90
23669;DHT22;12011;47.422;15.018;2023-08-21T00:31:34;16.30;99.90
23669;DHT22;12011;47.422;15.018;2023-08-21T00:34:04;16.10;99.90
23669;DHT22;12011;47.422;15.018;2023-08-21T00:36:33;16.10;99.90
23669;DHT22;12011;47.422;15.018;2023-08-21T00:39:05;16.10;99.90
23669;DHT22;12011;47.422;15.018;2023-08-21T00:41:37;16.00;99.90
23669;DHT22;12011;47.422;15.018;2023-08-21T00:44:08;16.00;99.90
23669;DHT22;12011;47.422;15.018;2023-08-21T00:46:38;15.80;99.90
23669;DHT22;12011;47.422;15.018;2023-08-21T00:49:07;15.90;99.90
23669;DHT22;12011;47.422;15.018;2023-08-21T00:51:38;15.90;99.90
23669;DHT22;12011;47.422;15.018;2023-08-21T00:54:11;15.90;99.90
23669;DHT22;12011;47.422;15.018;2023-08-21T00:56:41;15.90;99.90
23669;DHT22;12011;47.422;15.018;2023-08-21T00:59:11;15.90;99.90
23669;DHT22;12011;47.422;15.018;2023-08-21T01:01:41;15.80;99.90
23669;DHT22;12011;47.422;15.018;2023-08-21T01:04:18;15.80;99.90
23669;DHT22;12011;47.422;15.018;2023-08-21T01:06:49;15.80;99.90
23669;DHT22;12011;47.422;15.018;2023-08-21T01:09:29;15.70;99.90
23669;DHT22;12011;47.422;15.018;2023-08-21T01:12:12;15.60;99.90
23669;DHT22;12011;47.422;15.018;2023-08-21T01:14:54;15.70;99.90
23669;DHT22;12011;47.422;15.018;2023-08-21T01:17:29;15.60;99.90
23669;DHT22;12011;47.422;15.018;2023-08-21T01:20:00;15.50;99.90
23669;DHT22;12011;47.422;15.018;2023-08-21T01:22:36;15.60;99.90
23669;DHT22;12011;47.422;15.018;2023-08-21T01:25:10;15.70;99.90
23669;DHT22;12011;47.422;15.018;2023-08-21T01:27:42;15.70;99.90
23669;DHT22;12011;47.422;15.018;2023-08-21T01:30:18;15.60;99.90
23669;DHT22;12011;47.422;15.018;2023-08-21T01:33:00;15.50;99.90
23669;DHT22;12011;47.422;15.018;2023-08-21T01:35:35;15.50;99.90
23669;DHT22;12011;47.422;15.018;2023-08-21T01:38:09;15.50;99.90
23669;DHT22;12011;47.422;15.018;2023-08-21T01:40:41;15.40;99.90
23669;DHT22;12011;47.422;15.018;2023-08-21T01:43:11;15.30;99.90
23669;DHT22;12011;47.422;15.018;2023-08-21T01:45:41;15.30;99.90
23669;DHT22;12011;47.422;15.018;2023-08-21T01:48:11;15.30;99.90
23669;DHT22;12011;47.422;15.018;2023-08-21T01:50:40;15.40;99.90
23669;DHT22;12011;47.422;15.018;2023-08-21T01:53:10;15.30;99.90
23669;DHT22;12011;47.422;15.018;2023-08-21T01:55:42;15.30;99.90
23669;DHT22;12011;47.422;15.018;2023-08-21T01:58:13;15.30;99.90
23669;DHT22;12011;47.422;15.018;2023-08-21T02:00:48;15.30;99.90
23669;DHT22;12011;47.422;15.018;2023-08-21T02:03:18;15.20;99.90
23669;DHT22;12011;47.422;15.018;2023-08-21T02:05:48;15.20;99.90
23669;DHT22;12011;47.422;15.018;2023-08-21T02:08:19;15.10;99.90
23669;DHT22;12011;47.422;15.018;2023-08-21T02:10:55;15.10;99.90
23669;DHT22;12011;47.422;15.018;2023-08-21T02:13:24;15.10;99.90
23669;DHT22;12011;47.422;15.018;2023-08-21T02:15:54;15.00;99.90
23669;DHT22;12011;47.422;15.018;2023-08-21T02:18:24;15.00;99.90
23669;DHT22;12011;47.422;15.018;2023-08-21T02:20:53;15.00;99.90
23669;DHT22;12011;47.422;15.018;2023-08-21T02:23:23;15.00;99.90
23669;DHT22;12011;47.422;15.018;2023-08-21T02:25:56;15.00;99.90
23669;DHT22;12011;47.422;15.018;2023-08-21T02:28:26;15.10;99.90
23669;DHT22;12011;47.422;15.018;2023-08-21T02:30:56;15.10;99.90
23669;DHT22;12011;47.422;15.018;2023-08-21T02:33:26;15.00;99.90
23669;DHT22;12011;47.422;15.018;2023-08-21T02:35:56;14.90;99.90
23669;DHT22;12011;47.422;15.018;2023-08-21T02:38:30;14.90;99.90
23669;DHT22;12011;47.422;15.018;2023-08-21T02:41:02;14.90;99.90
23669;DHT22;12011;47.422;15.018;2023-08-21T02:43:32;14.90;99.90
23669;DHT22;12011;47.422;15.018;2023-08-21T02:46:01;14.80;99.90
23669;DHT22;12011;47.422;15.018;2023-08-21T02:48:32;14.70;99.90
23669;DHT22;12011;47.422;15.018;2023-08-21T02:51:02;14.70;99.90
23669;DHT22;12011;47.422;15.018;2023-08-21T02:53:33;14.70;99.90
23669;DHT22;12011;47.422;15.018;2023-08-21T02:56:05;14.70;99.90
23669;DHT22;12011;47.422;15.018;2023-08-21T02:58:35;14.70;99.90
23669;DHT22;12011;47.422;15.018;2023-08-21T03:01:07;14.60;99.90
23669;DHT22;12011;47.422;15.018;2023-08-21T03:03:36;14.60;99.90
23669;DHT22;12011;47.422;15.018;2023-08-21T03:06:06;14.50;99.90
23669;DHT22;12011;47.422;15.018;2023-08-21T03:08:37;14.50;99.90
23669;DHT22;12011;47.422;15.018;2023-08-21T03:11:12;14.60;99.90
23669;DHT22;12011;47.422;15.018;2023-08-21T03:13:41;14.60;99.90
23669;DHT22;12011;47.422;15.018;2023-08-21T03:16:14;14.60;99.90
23669;DHT22;12011;47.422;15.018;2023-08-21T03:18:59;14.50;99.90
23669;DHT22;12011;47.422;15.018;2023-08-21T03:21:30;14.50;99.90
23669;DHT22;12011;47.422;15.018;2023-08-21T03:24:01;14.50;99.90
23669;DHT22;12011;47.422;15.018;2023-08-21T03:26:33;14.40;99.90
23669;DHT22;12011;47.422;15.018;2023-08-21T03:29:03;14.30;99.90
23669;DHT22;12011;47.422;15.018;2023-08-21T03:31:33;14.30;99.90
23669;DHT22;12011;47.422;15.018;2023-08-21T03:34:03;14.30;99.90
23669;DHT22;12011;47.422;15.018;2023-08-21T03:36:32;14.20;99.90
23669;DHT22;12011;47.422;15.018;2023-08-21T03:39:05;14.20;99.90
23669;DHT22;12011;47.422;15.018;2023-08-21T03:41:42;14.20;99.90
23669;DHT22;12011;47.422;15.018;2023-08-21T03:44:12;14.30;99.90
23669;DHT22;12011;47.422;15.018;2023-08-21T03:46:41;14.20;99.90
23669;DHT22;12011;47.422;15.018;2023-08-21T03:49:11;14.20;99.90
23669;DHT22;12011;47.422;15.018;2023-08-21T03:51:40;14.30;99.90
23669;DHT22;12011;47.422;15.018;2023-08-21T03:54:10;14.30;99.90
23669;DHT22;12011;47.422;15.018;2023-08-21T03:56:42;14.30;99.90
23669;DHT22;12011;47.422;15.018;2023-08-21T03:59:12;14.20;99.90
23669;DHT22;12011;47.422;15.018;2023-08-21T04:01:41;14.20;99.90
23669;DHT22;12011;47.422;15.018;2023-08-21T04:04:11;14.20;99.90
23669;DHT22;12011;47.422;15.018;2023-08-21T04:06:40;14.20;99.90
23669;DHT22;12011;47.422;15.018;2023-08-21T04:09:12;14.20;99.90
23669;DHT22;12011;47.422;15.018;2023-08-21T04:11:44;14.30;99.90
23669;DHT22;12011;47.422;15.018;2023-08-21T04:14:14;14.40;99.90
23669;DHT22;12011;47.422;15.018;2023-08-21T04:16:44;14.40;99.90
23669;DHT22;12011;47.422;15.018;2023-08-21T04:19:13;14.40;99.90
23669;DHT22;12011;47.422;15.018;2023-08-21T04:21:43;14.40;99.90
23669;DHT22;12011;47.422;15.018;2023-08-21T04:24:12;14.30;99.90
23669;DHT22;12011;47.422;15.018;2023-08-21T04:26:45;14.30;99.90
23669;DHT22;12011;47.422;15.018;2023-08-21T04:29:14;14.40;99.90
23669;DHT22;12011;47.422;15.018;2023-08-21T04:31:44;14.40;99.90
23669;DHT22;12011;47.422;15.018;2023-08-21T04:34:13;14.40;99.90
23669;DHT22;12011;47.422;15.018;2023-08-21T04:36:46;14.40;99.90
23669;DHT22;12011;47.422;15.018;2023-08-21T04:39:16;14.40;99.90
23669;DHT22;12011;47.422;15.018;2023-08-21T04:41:49;14.50;99.90
23669;DHT22;12011;47.422;15.018;2023-08-21T04:44:19;14.60;99.90
23669;DHT22;12011;47.422;15.018;2023-08-21T04:46:49;14.80;99.90
23669;DHT22;12011;47.422;15.018;2023-08-21T04:49:19;15.50;99.90
23669;DHT22;12011;47.422;15.018;2023-08-21T04:51:50;16.20;99.90
23669;DHT22;12011;47.422;15.018;2023-08-21T04:54:19;17.00;99.90
23669;DHT22;12011;47.422;15.018;2023-08-21T04:56:51;17.60;99.90
23669;DHT22;12011;47.422;15.018;2023-08-21T04:59:21;18.20;99.90
23669;DHT22;12011;47.422;15.018;2023-08-21T05:01:51;18.70;99.90
23669;DHT22;12011;47.422;15.018;2023-08-21T05:04:21;19.20;99.90
23669;DHT22;12011;47.422;15.018;2023-08-21T05:06:51;19.50;99.90
23669;DHT22;12011;47.422;15.018;2023-08-21T05:09:20;20.00;99.90
23669;DHT22;12011;47.422;15.018;2023-08-21T05:11:53;20.40;99.90
23669;DHT22;12011;47.422;15.018;2023-08-21T05:14:23;20.70;99.90
23669;DHT22;12011;47.422;15.018;2023-08-21T05:16:53;21.00;99.90
23669;DHT22;12011;47.422;15.018;2023-08-21T05:19:23;21.40;99.90
23669;DHT22;12011;47.422;15.018;2023-08-21T05:21:52;21.80;97.20
23669;DHT22;12011;47.422;15.018;2023-08-21T05:24:22;22.40;96.60
23669;DHT22;12011;47.422;15.018;2023-08-21T05:27:04;22.70;94.90
23669;DHT22;12011;47.422;15.018;2023-08-21T05:29:34;22.90;93.20
23669;DHT22;12011;47.422;15.018;2023-08-21T05:32:04;23.50;90.90
23669;DHT22;12011;47.422;15.018;2023-08-21T05:34:35;24.00;87.50
23669;DHT22;12011;47.422;15.018;2023-08-21T05:37:05;23.80;86.30
23669;DHT22;12011;47.422;15.018;2023-08-21T05:39:34;24.40;84.30
23669;DHT22;12011;47.422;15.018;2023-08-21T05:42:07;24.60;85.10
23669;DHT22;12011;47.422;15.018;2023-08-21T05:44:37;25.30;77.10
23669;DHT22;12011;47.422;15.018;2023-08-21T05:47:07;24.80;76.60
23669;DHT22;12011;47.422;15.018;2023-08-21T05:49:37;25.10;76.10
23669;DHT22;12011;47.422;15.018;2023-08-21T05:52:08;25.30;75.60
23669;DHT22;12011;47.422;15.018;2023-08-21T05:54:38;25.40;70.50
23669;DHT22;12011;47.422;15.018;2023-08-21T05:57:10;25.90;69.70
23669;DHT22;12011;47.422;15.018;2023-08-21T05:59:44;26.10;66.10
23669;DHT22;12011;47.422;15.018;2023-08-21T06:02:14;26.30;73.90
23669;DHT22;12011;47.422;15.018;2023-08-21T06:04:44;26.80;72.00
23669;DHT22;12011;47.422;15.018;2023-08-21T06:07:15;27.00;65.10
23669;DHT22;12011;47.422;15.018;2023-08-21T06:09:45;27.20;66.20
23669;DHT22;12011;47.422;15.018;2023-08-21T06:12:18;27.40;61.30
23669;DHT22;12011;47.422;15.018;2023-08-21T06:14:48;27.60;58.50
23669;DHT22;12011;47.422;15.018;2023-08-21T06:17:18;27.50;58.20
23669;DHT22;12011;47.422;15.018;2023-08-21T06:19:47;27.60;61.90
23669;DHT22;12011;47.422;15.018;2023-08-21T06:22:17;27.90;60.10
23669;DHT22;12011;47.422;15.018;2023-08-21T06:24:46;28.00;62.30
23669;DHT22;12011;47.422;15.018;2023-08-21T06:27:20;27.90;59.50
23669;DHT22;12011;47.422;15.018;2023-08-21T06:29:49;27.70;57.50
23669;DHT22;12011;47.422;15.018;2023-08-21T06:32:19;27.90;57.70
23669;DHT22;12011;47.422;15.018;2023-08-21T06:34:49;28.00;58.20
23669;DHT22;12011;47.422;15.018;2023-08-21T06:37:19;28.90;56.80
23669;DHT22;12011;47.422;15.018;2023-08-21T06:39:48;29.10;53.40
23669;DHT22;12011;47.422;15.018;2023-08-21T06:42:21;29.00;54.30
23669;DHT22;12011;47.422;15.018;2023-08-21T06:44:51;29.20;53.20
23669;DHT22;12011;47.422;15.018;2023-08-21T06:47:21;29.70;53.40
23669;DHT22;12011;47.422;15.018;2023-08-21T06:49:50;30.00;53.60
23669;DHT22;12011;47.422;15.018;2023-08-21T06:52:20;29.80;55.80
23669;DHT22;12011;47.422;15.018;2023-08-21T06:54:49;30.30;55.20
23669;DHT22;12011;47.422;15.018;2023-08-21T06:57:23;30.70;51.50
23669;DHT22;12011;47.422;15.018;2023-08-21T06:59:53;31.00;52.10
23669;DHT22;12011;47.422;15.018;2023-08-21T07:02:22;30.90;51.90
23669;DHT22;12011;47.422;15.018;2023-08-21T07:04:52;31.10;52.50
23669;DHT22;12011;47.422;15.018;2023-08-21T07:07:22;30.80;51.50
23669;DHT22;12011;47.422;15.018;2023-08-21T07:09:51;31.30;49.40
23669;DHT22;12011;47.422;15.018;2023-08-21T07:12:24;31.30;49.30
23669;DHT22;12011;47.422;15.018;2023-08-21T07:14:54;31.50;52.10
23669;DHT22;12011;47.422;15.018;2023-08-21T07:17:24;31.90;50.30
23669;DHT22;12011;47.422;15.018;2023-08-21T07:19:53;32.30;48.10
23669;DHT22;12011;47.422;15.018;2023-08-21T07:22:23;32.50;48.10
23669;DHT22;12011;47.422;15.018;2023-08-21T07:24:52;32.70;49.00
23669;DHT22;12011;47.422;15.018;2023-08-21T07:27:25;32.90;49.00
23669;DHT22;12011;47.422;15.018;2023-08-21T07:29:54;32.80;47.60
23669;DHT22;12011;47.422;15.018;2023-08-21T07:32:24;32.30;47.40
23669;DHT22;12011;47.422;15.018;2023-08-21T07:34:54;32.30;47.00
23669;DHT22;12011;47.422;15.018;2023-08-21T07:37:24;32.20;48.50
23669;DHT22;12011;47.422;15.018;2023-08-21T07:39:53;31.90;46.40
23669;DHT22;12011;47.422;15.018;2023-08-21T07:42:26;32.10;47.00
23669;DHT22;12011;47.422;15.018;2023-08-21T07:44:56;32.40;47.00
23669;DHT22;12011;47.422;15.018;2023-08-21T07:47:27;32.60;47.10
23669;DHT22;12011;47.422;15.018;2023-08-21T07:49:57;33.20;47.70
23669;DHT22;12011;47.422;15.018;2023-08-21T07:52:27;33.40;47.00
23669;DHT22;12011;47.422;15.018;2023-08-21T07:54:56;32.60;46.50
23669;DHT22;12011;47.422;15.018;2023-08-21T07:57:29;33.10;45.90
23669;DHT22;12011;47.422;15.018;2023-08-21T07:59:59;33.60;45.20
23669;DHT22;12011;47.422;15.018;2023-08-21T08:02:39;33.90;46.70
23669;DHT22;12011;47.422;15.018;2023-08-21T08:05:09;33.40;44.70
23669;DHT22;12011;47.422;15.018;2023-08-21T08:07:39;33.70;46.20
23669;DHT22;12011;47.422;15.018;2023-08-21T08:10:08;34.30;46.90
23669;DHT22;12011;47.422;15.018;2023-08-21T08:12:41;33.40;43.10
23669;DHT22;12011;47.422;15.018;2023-08-21T08:15:11;33.50;48.20
23669;DHT22;12011;47.422;15.018;2023-08-21T08:17:41;34.60;47.10
23669;DHT22;12011;47.422;15.018;2023-08-21T08:20:12;34.90;46.70
23669;DHT22;12011;47.422;15.018;2023-08-21T08:22:41;35.40;47.30
23669;DHT22;12011;47.422;15.018;2023-08-21T08:25:11;33.80;41.30
23669;DHT22;12011;47.422;15.018;2023-08-21T08:27:44;34.50;43.80
23669;DHT22;12011;47.422;15.018;2023-08-21T08:30:14;35.10;43.20
23669;DHT22;12011;47.422;15.018;2023-08-21T08:32:44;35.00;41.90
23669;DHT22;12011;47.422;15.018;2023-08-21T08:35:14;35.20;42.80
23669;DHT22;12011;47.422;15.018;2023-08-21T08:37:44;35.40;43.90
23669;DHT22;12011;47.422;15.018;2023-08-21T08:40:14;36.00;44.40
23669;DHT22;12011;47.422;15.018;2023-08-21T08:42:47;36.40;42.00
23669;DHT22;12011;47.422;15.018;2023-08-21T08:45:28;36.60;40.50
23669;DHT22;12011;47.422;15.018;2023-08-21T08:48:00;36.20;40.30
23669;DHT22;12011;47.422;15.018;2023-08-21T08:50:32;35.80;42.10
23669;DHT22;12011;47.422;15.018;2023-08-21T08:53:02;35.70;41.90
23669;DHT22;12011;47.422;15.018;2023-08-21T08:55:32;35.50;40.50
23669;DHT22;12011;47.422;15.018;2023-08-21T08:58:04;35.50;43.90
23669;DHT22;12011;47.422;15.018;2023-08-21T09:00:34;35.20;42.80
23669;DHT22;12011;47.422;15.018;2023-08-21T09:03:04;34.50;42.40
23669;DHT22;12011;47.422;15.018;2023-08-21T09:05:34;34.50;41.20
23669;DHT22;12011;47.422;15.018;2023-08-21T09:08:10;35.20;45.60
23669;DHT22;12011;47.422;15.018;2023-08-21T09:10:42;35.80;44.30
23669;DHT22;12011;47.422;15.018;2023-08-21T09:13:16;36.50;39.20
23669;DHT22;12011;47.422;15.018;2023-08-21T09:15:48;36.10;41.90
23669;DHT22;12011;47.422;15.018;2023-08-21T09:18:19;35.70;39.80
23669;DHT22;12011;47.422;15.018;2023-08-21T09:20:49;36.20;42.20
23669;DHT22;12011;47.422;15.018;2023-08-21T09:23:19;35.70;41.60
23669;DHT22;12011;47.422;15.018;2023-08-21T09:25:49;36.00;41.90
23669;DHT22;12011;47.422;15.018;2023-08-21T09:28:22;35.70;43.50
23669;DHT22;12011;47.422;15.018;2023-08-21T09:30:53;36.10;45.60
23669;DHT22;12011;47.422;15.018;2023-08-21T09:33:25;36.90;43.50
23669;DHT22;12011;47.422;15.018;2023-08-21T09:35:55;36.40;40.60
23669;DHT22;12011;47.422;15.018;2023-08-21T09:38:26;36.40;44.80
23669;DHT22;12011;47.422;15.018;2023-08-21T09:40:56;37.20;43.40
23669;DHT22;12011;47.422;15.018;2023-08-21T09:43:28;37.60;42.50
23669;DHT22;12011;47.422;15.018;2023-08-21T09:45:58;37.50;43.00
23669;DHT22;12011;47.422;15.018;2023-08-21T09:48:28;38.00;40.60
23669;DHT22;12011;47.422;15.018;2023-08-21T09:50:57;38.70;39.90
23669;DHT22;12011;47.422;15.018;2023-08-21T09:53:30;38.40;37.60
23669;DHT22;12011;47.422;15.018;2023-08-21T09:56:19;37.80;42.60
23669;DHT22;12011;47.422;15.018;2023-08-21T09:58:52;37.30;39.00
23669;DHT22;12011;47.422;15.018;2023-08-21T10:01:22;37.20;37.80
23669;DHT22;12011;47.422;15.018;2023-08-21T10:03:56;37.20;37.50
23669;DHT22;12011;47.422;15.018;2023-08-21T10:06:27;36.80;38.10
23669;DHT22;12011;47.422;15.018;2023-08-21T10:08:58;36.70;43.10
23669;DHT22;12011;47.422;15.018;2023-08-21T10:11:28;37.30;41.20
23669;DHT22;12011;47.422;15.018;2023-08-21T10:14:01;37.90;39.60
23669;DHT22;12011;47.422;15.018;2023-08-21T10:16:31;38.60;39.20
23669;DHT22;12011;47.422;15.018;2023-08-21T10:19:04;38.60;35.10
23669;DHT22;12011;47.422;15.018;2023-08-21T10:21:36;38.50;40.20
23669;DHT22;12011;47.422;15.018;2023-08-21T10:24:06;38.30;39.50
23669;DHT22;12011;47.422;15.018;2023-08-21T10:26:39;38.50;36.60
23669;DHT22;12011;47.422;15.018;2023-08-21T10:29:11;38.70;37.80
23669;DHT22;12011;47.422;15.018;2023-08-21T10:31:41;38.60;39.40
23669;DHT22;12011;47.422;15.018;2023-08-21T10:34:12;38.60;39.20
23669;DHT22;12011;47.422;15.018;2023-08-21T10:37:04;38.80;41.50
23669;DHT22;12011;47.422;15.018;2023-08-21T10:39:36;38.00;35.20
23669;DHT22;12011;47.422;15.018;2023-08-21T10:42:10;38.50;38.10
23669;DHT22;12011;47.422;15.018;2023-08-21T10:44:55;38.40;36.30
23669;DHT22;12011;47.422;15.018;2023-08-21T10:47:32;37.40;37.10
23669;DHT22;12011;47.422;15.018;2023-08-21T10:50:04;37.00;40.10
23669;DHT22;12011;47.422;15.018;2023-08-21T10:52:36;37.30;37.50
23669;DHT22;12011;47.422;15.018;2023-08-21T10:55:09;36.90;39.30
23669;DHT22;12011;47.422;15.018;2023-08-21T10:57:40;36.70;37.80
23669;DHT22;12011;47.422;15.018;2023-08-21T11:00:14;36.30;37.60
23669;DHT22;12011;47.422;15.018;2023-08-21T11:02:48;37.00;40.80
23669;DHT22;12011;47.422;15.018;2023-08-21T11:05:18;36.60;34.60
23669;DHT22;12011;47.422;15.018;2023-08-21T11:07:48;36.70;34.80
23669;DHT22;12011;47.422;15.018;2023-08-21T11:10:22;37.20;35.30
23669;DHT22;12011;47.422;15.018;2023-08-21T11:12:54;37.80;32.30
23669;DHT22;12011;47.422;15.018;2023-08-21T11:15:29;37.90;32.40
23669;DHT22;12011;47.422;15.018;2023-08-21T11:18:01;37.70;32.70
23669;DHT22;12011;47.422;15.018;2023-08-21T11:20:33;37.80;31.00
23669;DHT22;12011;47.422;15.018;2023-08-21T11:23:05;37.60;38.90
23669;DHT22;12011;47.422;15.018;2023-08-21T11:25:38;37.90;35.90
23669;DHT22;12011;47.422;15.018;2023-08-21T11:28:08;38.30;39.80
23669;DHT22;12011;47.422;15.018;2023-08-21T11:30:40;37.90;37.20
23669;DHT22;12011;47.422;15.018;2023-08-21T11:33:13;37.50;35.50
23669;DHT22;12011;47.422;15.018;2023-08-21T11:35:43;37.40;34.70
23669;DHT22;12011;47.422;15.018;2023-08-21T11:38:18;36.80;38.20
23669;DHT22;12011;47.422;15.018;2023-08-21T11:40:52;36.90;42.10
23669;DHT22;12011;47.422;15.018;2023-08-21T11:43:33;37.10;39.80
23669;DHT22;12011;47.422;15.018;2023-08-21T11:46:10;36.00;36.90
23669;DHT22;12011;47.422;15.018;2023-08-21T11:48:41;36.20;37.80
23669;DHT22;12011;47.422;15.018;2023-08-21T11:51:11;35.90;40.60
23669;DHT22;12011;47.422;15.018;2023-08-21T11:53:42;35.30;36.20
23669;DHT22;12011;47.422;15.018;2023-08-21T11:56:14;34.60;38.40
23669;DHT22;12011;47.422;15.018;2023-08-21T11:58:46;35.10;43.00
23669;DHT22;12011;47.422;15.018;2023-08-21T12:01:20;35.20;36.30
23669;DHT22;12011;47.422;15.018;2023-08-21T12:03:50;34.70;39.30
23669;DHT22;12011;47.422;15.018;2023-08-21T12:06:22;34.60;42.30
23669;DHT22;12011;47.422;15.018;2023-08-21T12:08:52;35.00;43.90
23669;DHT22;12011;47.422;15.018;2023-08-21T12:11:23;35.20;42.20
23669;DHT22;12011;47.422;15.018;2023-08-21T12:13:52;35.00;41.80
23669;DHT22;12011;47.422;15.018;2023-08-21T12:16:24;34.40;40.90
23669;DHT22;12011;47.422;15.018;2023-08-21T12:18:54;34.50;38.70
23669;DHT22;12011;47.422;15.018;2023-08-21T12:21:24;34.90;39.40
23669;DHT22;12011;47.422;15.018;2023-08-21T12:23:53;35.00;38.20
23669;DHT22;12011;47.422;15.018;2023-08-21T12:26:23;34.80;37.20
23669;DHT22;12011;47.422;15.018;2023-08-21T12:28:52;34.50;39.70
23669;DHT22;12011;47.422;15.018;2023-08-21T12:31:25;34.80;43.30
23669;DHT22;12011;47.422;15.018;2023-08-21T12:33:54;35.00;42.50
23669;DHT22;12011;47.422;15.018;2023-08-21T12:36:24;34.60;43.20
23669;DHT22;12011;47.422;15.018;2023-08-21T12:38:54;34.10;42.00
23669;DHT22;12011;47.422;15.018;2023-08-21T12:41:23;34.30;41.20
23669;DHT22;12011;47.422;15.018;2023-08-21T12:43:53;33.80;39.20
23669;DHT22;12011;47.422;15.018;2023-08-21T12:46:25;33.90;43.90
23669;DHT22;12011;47.422;15.018;2023-08-21T12:48:55;33.60;41.80
23669;DHT22;12011;47.422;15.018;2023-08-21T12:51:25;33.50;41.70
23669;DHT22;12011;47.422;15.018;2023-08-21T12:53:55;33.70;34.50
23669;DHT22;12011;47.422;15.018;2023-08-21T12:56:25;33.60;41.80
23669;DHT22;12011;47.422;15.018;2023-08-21T12:58:54;34.00;44.50
23669;DHT22;12011;47.422;15.018;2023-08-21T13:01:28;34.20;42.20
23669;DHT22;12011;47.422;15.018;2023-08-21T13:04:00;33.90;39.90
23669;DHT22;12011;47.422;15.018;2023-08-21T13:06:30;33.80;46.40
23669;DHT22;12011;47.422;15.018;2023-08-21T13:08:59;33.60;40.50
23669;DHT22;12011;47.422;15.018;2023-08-21T13:11:30;33.40;38.90
23669;DHT22;12011;47.422;15.018;2023-08-21T13:13:59;33.70;41.40
23669;DHT22;12011;47.422;15.018;2023-08-21T13:16:32;34.00;38.30
23669;DHT22;12011;47.422;15.018;2023-08-21T13:19:01;34.30;39.90
23669;DHT22;12011;47.422;15.018;2023-08-21T13:21:31;33.90;38.30
23669;DHT22;12011;47.422;15.018;2023-08-21T13:24:00;34.20;38.10
23669;DHT22;12011;47.422;15.018;2023-08-21T13:26:30;33.80;37.90
23669;DHT22;12011;47.422;15.018;2023-08-21T13:29:01;34.00;37.40
23669;DHT22;12011;47.422;15.018;2023-08-21T13:31:36;34.00;39.10
23669;DHT22;12011;47.422;15.018;2023-08-21T13:34:05;33.80;39.50
23669;DHT22;12011;47.422;15.018;2023-08-21T13:36:35;33.60;39.90
23669;DHT22;12011;47.422;15.018;2023-08-21T13:39:04;33.80;34.80
23669;DHT22;12011;47.422;15.018;2023-08-21T13:41:37;34.20;36.40
23669;DHT22;12011;47.422;15.018;2023-08-21T13:44:06;34.30;38.90
23669;DHT22;12011;47.422;15.018;2023-08-21T13:46:39;34.10;37.20
23669;DHT22;12011;47.422;15.018;2023-08-21T13:49:09;34.00;39.70
23669;DHT22;12011;47.422;15.018;2023-08-21T13:51:39;34.20;36.30
23669;DHT22;12011;47.422;15.018;2023-08-21T13:54:08;34.40;39.20
23669;DHT22;12011;47.422;15.018;2023-08-21T13:56:38;33.90;33.40
23669;DHT22;12011;47.422;15.018;2023-08-21T13:59:08;33.90;35.80
23669;DHT22;12011;47.422;15.018;2023-08-21T14:01:40;33.80;35.80
23669;DHT22;12011;47.422;15.018;2023-08-21T14:04:09;33.50;39.40
23669;DHT22;12011;47.422;15.018;2023-08-21T14:06:39;32.90;35.00
23669;DHT22;12011;47.422;15.018;2023-08-21T14:09:09;32.40;39.00
23669;DHT22;12011;47.422;15.018;2023-08-21T14:11:39;32.20;44.30
23669;DHT22;12011;47.422;15.018;2023-08-21T14:14:09;32.10;50.60
23669;DHT22;12011;47.422;15.018;2023-08-21T14:16:42;32.30;50.80
23669;DHT22;12011;47.422;15.018;2023-08-21T14:19:11;32.50;52.50
23669;DHT22;12011;47.422;15.018;2023-08-21T14:21:41;32.40;45.30
23669;DHT22;12011;47.422;15.018;2023-08-21T14:24:11;32.40;49.00
23669;DHT22;12011;47.422;15.018;2023-08-21T14:26:40;32.50;43.50
23669;DHT22;12011;47.422;15.018;2023-08-21T14:29:10;32.30;42.90
23669;DHT22;12011;47.422;15.018;2023-08-21T14:31:42;32.40;43.10
23669;DHT22;12011;47.422;15.018;2023-08-21T14:34:13;32.30;44.20
23669;DHT22;12011;47.422;15.018;2023-08-21T14:36:42;32.60;37.70
23669;DHT22;12011;47.422;15.018;2023-08-21T14:39:12;32.80;44.90
23669;DHT22;12011;47.422;15.018;2023-08-21T14:41:42;32.70;44.00
23669;DHT22;12011;47.422;15.018;2023-08-21T14:44:12;32.60;43.80
23669;DHT22;12011;47.422;15.018;2023-08-21T14:46:44;32.60;39.80
23669;DHT22;12011;47.422;15.018;2023-08-21T14:49:14;32.80;43.70
23669;DHT22;12011;47.422;15.018;2023-08-21T14:51:43;33.30;46.90
23669;DHT22;12011;47.422;15.018;2023-08-21T14:54:13;33.10;41.50
23669;DHT22;12011;47.422;15.018;2023-08-21T14:56:42;33.10;38.00
23669;DHT22;12011;47.422;15.018;2023-08-21T14:59:13;33.20;46.90
23669;DHT22;12011;47.422;15.018;2023-08-21T15:01:45;32.90;36.70
23669;DHT22;12011;47.422;15.018;2023-08-21T15:04:14;33.10;41.50
23669;DHT22;12011;47.422;15.018;2023-08-21T15:06:45;33.10;50.30
23669;DHT22;12011;47.422;15.018;2023-08-21T15:09:15;33.00;45.60
23669;DHT22;12011;47.422;15.018;2023-08-21T15:11:45;32.90;36.30
23669;DHT22;12011;47.422;15.018;2023-08-21T15:14:14;33.10;44.50
23669;DHT22;12011;47.422;15.018;2023-08-21T15:16:46;33.40;53.10
23669;DHT22;12011;47.422;15.018;2023-08-21T15:19:16;33.50;45.90
23669;DHT22;12011;47.422;15.018;2023-08-21T15:21:45;33.20;39.60
23669;DHT22;12011;47.422;15.018;2023-08-21T15:24:15;33.20;39.70
23669;DHT22;12011;47.422;15.018;2023-08-21T15:26:44;32.90;38.00
23669;DHT22;12011;47.422;15.018;2023-08-21T15:29:14;32.90;38.20
23669;DHT22;12011;47.422;15.018;2023-08-21T15:31:46;33.10;42.20
23669;DHT22;12011;47.422;15.018;2023-08-21T15:34:17;33.10;40.40
23669;DHT22;12011;47.422;15.018;2023-08-21T15:36:46;32.70;45.50
23669;DHT22;12011;47.422;15.018;2023-08-21T15:39:17;32.80;43.90